sensor_id;sensor_type;location;lat;lon;timestamp;pressure;altitude;pressure_sealevel;temperature;humidity
55217;BME280;41086;46.736;15.666;2023-04-03T00:00:38;98680.84;;;3.52;100.00
55217;BME280;41086;46.736;15.666;2023-04-03T00:03:05;98691.28;;;3.53;100.00
55217;BME280;41086;46.736;15.666;2023-04-03T00:05:31;98689.63;;;3.51;100.00
55217;BME280;41086;46.736;15.666;2023-04-03T00:07:59;98688.22;;;3.42;100.00
55217;BME280;41086;46.736;15.666;2023-04-03T00:10:26;98691.69;;;3.43;100.00
55217;BME280;41086;46.736;15.666;2023-04-03T00:12:53;98689.22;;;3.38;100.00
55217;BME280;41086;46.736;15.666;2023-04-03T00:15:20;98686.75;;;3.33;100.00
55217;BME280;41086;46.736;15.666;2023-04-03T00:17:47;98689.44;;;3.32;100.00
55217;BME280;41086;46.736;15.666;2023-04-03T00:20:14;98695.69;;;3.28;100.00
55217;BME280;41086;46.736;15.666;2023-04-03T00:22:41;98692.34;;;3.24;100.00
55217;BME280;41086;46.736;15.666;2023-04-03T00:25:08;98682.19;;;3.15;100.00
55217;BME280;41086;46.736;15.666;2023-04-03T00:27:38;98702.22;;;3.16;100.00
55217;BME280;41086;46.736;15.666;2023-04-03T00:30:07;98696.13;;;3.16;100.00
55217;BME280;41086;46.736;15.666;2023-04-03T00:32:34;98702.25;;;3.15;100.00
55217;BME280;41086;46.736;15.666;2023-04-03T00:35:01;98694.84;;;3.02;100.00
55217;BME280;41086;46.736;15.666;2023-04-03T00:37:28;98710.59;;;3.01;100.00
55217;BME280;41086;46.736;15.666;2023-04-03T00:39:56;98709.22;;;2.91;100.00
55217;BME280;41086;46.736;15.666;2023-04-03T00:42:23;98704.25;;;2.83;100.00
55217;BME280;41086;46.736;15.666;2023-04-03T00:47:29;98703.69;;;2.73;100.00
55217;BME280;41086;46.736;15.666;2023-04-03T00:49:57;98700.59;;;2.60;100.00
55217;BME280;41086;46.736;15.666;2023-04-03T00:52:28;98691.31;;;2.52;100.00
55217;BME280;41086;46.736;15.666;2023-04-03T00:54:59;98706.00;;;2.56;100.00
55217;BME280;41086;46.736;15.666;2023-04-03T00:57:28;98700.06;;;2.51;100.00
55217;BME280;41086;46.736;15.666;2023-04-03T01:00:05;98710.63;;;2.48;100.00
55217;BME280;41086;46.736;15.666;2023-04-03T01:02:33;98708.88;;;2.48;100.00
55217;BME280;41086;46.736;15.666;2023-04-03T01:05:00;98709.00;;;2.43;100.00
55217;BME280;41086;46.736;15.666;2023-04-03T01:07:30;98709.31;;;2.34;100.00
55217;BME280;41086;46.736;15.666;2023-04-03T01:09:59;98709.13;;;2.40;100.00
55217;BME280;41086;46.736;15.666;2023-04-03T01:12:32;98706.41;;;2.43;100.00
55217;BME280;41086;46.736;15.666;2023-04-03T01:17:44;98710.41;;;2.27;100.00
55217;BME280;41086;46.736;15.666;2023-04-03T01:25:17;98706.25;;;1.92;100.00
55217;BME280;41086;46.736;15.666;2023-04-03T01:27:44;98713.28;;;1.60;100.00
55217;BME280;41086;46.736;15.666;2023-04-03T01:30:12;98715.00;;;1.61;100.00
55217;BME280;41086;46.736;15.666;2023-04-03T01:32:40;98710.19;;;1.47;100.00
55217;BME280;41086;46.736;15.666;2023-04-03T01:35:09;98718.66;;;1.55;100.00
55217;BME280;41086;46.736;15.666;2023-04-03T01:37:36;98719.41;;;1.59;100.00
55217;BME280;41086;46.736;15.666;2023-04-03T01:40:03;98721.81;;;1.67;100.00
55217;BME280;41086;46.736;15.666;2023-04-03T01:42:32;98719.22;;;1.65;100.00
55217;BME280;41086;46.736;15.666;2023-04-03T01:44:59;98723.56;;;1.66;100.00
55217;BME280;41086;46.736;15.666;2023-04-03T01:47:26;98722.78;;;1.63;100.00
55217;BME280;41086;46.736;15.666;2023-04-03T01:49:52;98716.63;;;1.65;100.00
55217;BME280;41086;46.736;15.666;2023-04-03T01:52:19;98721.69;;;1.71;100.00
55217;BME280;41086;46.736;15.666;2023-04-03T01:54:46;98716.41;;;1.73;100.00
55217;BME280;41086;46.736;15.666;2023-04-03T01:57:13;98711.53;;;1.61;100.00
55217;BME280;41086;46.736;15.666;2023-04-03T01:59:41;98712.34;;;1.63;100.00
55217;BME280;41086;46.736;15.666;2023-04-03T02:02:08;98708.63;;;1.40;100.00
55217;BME280;41086;46.736;15.666;2023-04-03T02:04:35;98706.22;;;1.32;100.00
55217;BME280;41086;46.736;15.666;2023-04-03T02:07:02;98710.47;;;1.37;100.00
55217;BME280;41086;46.736;15.666;2023-04-03T02:09:29;98701.44;;;1.17;100.00
55217;BME280;41086;46.736;15.666;2023-04-03T02:11:55;98700.69;;;1.12;100.00
55217;BME280;41086;46.736;15.666;2023-04-03T02:14:22;98712.72;;;1.18;100.00
55217;BME280;41086;46.736;15.666;2023-04-03T02:16:50;98713.59;;;1.18;100.00
55217;BME280;41086;46.736;15.666;2023-04-03T02:19:17;98704.06;;;1.16;100.00
55217;BME280;41086;46.736;15.666;2023-04-03T02:21:43;98700.91;;;1.04;100.00
55217;BME280;41086;46.736;15.666;2023-04-03T02:24:11;98703.47;;;1.06;100.00
55217;BME280;41086;46.736;15.666;2023-04-03T02:26:37;98699.16;;;1.05;100.00
55217;BME280;41086;46.736;15.666;2023-04-03T02:29:04;98703.41;;;1.09;100.00
55217;BME280;41086;46.736;15.666;2023-04-03T02:31:31;98708.72;;;1.04;100.00
55217;BME280;41086;46.736;15.666;2023-04-03T02:34:00;98715.56;;;1.08;100.00
55217;BME280;41086;46.736;15.666;2023-04-03T02:36:27;98704.28;;;1.08;100.00
55217;BME280;41086;46.736;15.666;2023-04-03T02:38:59;98705.09;;;1.10;100.00
55217;BME280;41086;46.736;15.666;2023-04-03T02:41:26;98701.72;;;1.06;100.00
55217;BME280;41086;46.736;15.666;2023-04-03T02:44:02;98702.59;;;1.05;100.00
55217;BME280;41086;46.736;15.666;2023-04-03T02:46:29;98689.75;;;0.98;100.00
55217;BME280;41086;46.736;15.666;2023-04-03T02:48:56;98709.94;;;0.91;100.00
55217;BME280;41086;46.736;15.666;2023-04-03T02:51:23;98699.88;;;0.77;100.00
55217;BME280;41086;46.736;15.666;2023-04-03T02:53:50;98707.13;;;0.64;100.00
55217;BME280;41086;46.736;15.666;2023-04-03T02:56:21;98712.28;;;0.68;100.00
55217;BME280;41086;46.736;15.666;2023-04-03T02:58:48;98702.34;;;0.48;100.00
55217;BME280;41086;46.736;15.666;2023-04-03T03:01:16;98708.72;;;0.36;100.00
55217;BME280;41086;46.736;15.666;2023-04-03T03:03:43;98702.69;;;0.34;100.00
55217;BME280;41086;46.736;15.666;2023-04-03T03:06:12;98699.16;;;0.36;100.00
55217;BME280;41086;46.736;15.666;2023-04-03T03:08:40;98701.81;;;0.33;100.00
55217;BME280;41086;46.736;15.666;2023-04-03T03:11:07;98705.13;;;0.40;100.00
55217;BME280;41086;46.736;15.666;2023-04-03T03:13:34;98703.59;;;0.31;100.00
55217;BME280;41086;46.736;15.666;2023-04-03T03:16:01;98704.00;;;0.14;100.00
55217;BME280;41086;46.736;15.666;2023-04-03T03:18:29;98698.53;;;0.25;100.00
55217;BME280;41086;46.736;15.666;2023-04-03T03:20:59;98697.44;;;0.35;100.00
55217;BME280;41086;46.736;15.666;2023-04-03T03:23:28;98708.59;;;0.40;100.00
55217;BME280;41086;46.736;15.666;2023-04-03T03:25:59;98699.06;;;0.39;100.00
55217;BME280;41086;46.736;15.666;2023-04-03T03:28:26;98708.66;;;0.39;100.00
55217;BME280;41086;46.736;15.666;2023-04-03T03:30:53;98695.78;;;0.31;100.00
55217;BME280;41086;46.736;15.666;2023-04-03T03:33:21;98695.72;;;0.34;100.00
55217;BME280;41086;46.736;15.666;2023-04-03T03:35:48;98695.75;;;0.33;100.00
55217;BME280;41086;46.736;15.666;2023-04-03T03:38:15;98694.34;;;0.19;100.00
55217;BME280;41086;46.736;15.666;2023-04-03T03:40:41;98703.47;;;0.00;100.00
55217;BME280;41086;46.736;15.666;2023-04-03T03:43:08;98686.44;;;-0.16;100.00
55217;BME280;41086;46.736;15.666;2023-04-03T03:45:35;98679.75;;;-0.28;100.00
55217;BME280;41086;46.736;15.666;2023-04-03T03:48:03;98671.09;;;-0.29;100.00
55217;BME280;41086;46.736;15.666;2023-04-03T03:50:30;98669.41;;;-0.30;100.00
55217;BME280;41086;46.736;15.666;2023-04-03T03:52:57;98661.06;;;-0.46;100.00
55217;BME280;41086;46.736;15.666;2023-04-03T03:55:24;98660.84;;;-0.36;100.00
55217;BME280;41086;46.736;15.666;2023-04-03T03:57:54;98659.81;;;-0.29;100.00
55217;BME280;41086;46.736;15.666;2023-04-03T04:00:21;98661.38;;;-0.22;100.00
55217;BME280;41086;46.736;15.666;2023-04-03T04:02:53;98673.31;;;-0.10;100.00
55217;BME280;41086;46.736;15.666;2023-04-03T04:05:24;98674.06;;;-0.07;100.00
55217;BME280;41086;46.736;15.666;2023-04-03T04:07:52;98675.66;;;0.01;100.00
55217;BME280;41086;46.736;15.666;2023-04-03T04:10:20;98679.03;;;0.06;100.00
55217;BME280;41086;46.736;15.666;2023-04-03T04:12:47;98673.75;;;0.09;100.00
55217;BME280;41086;46.736;15.666;2023-04-03T04:15:16;98682.31;;;0.14;100.00
55217;BME280;41086;46.736;15.666;2023-04-03T04:17:43;98684.09;;;0.12;100.00
55217;BME280;41086;46.736;15.666;2023-04-03T04:20:11;98686.69;;;0.12;100.00
55217;BME280;41086;46.736;15.666;2023-04-03T04:22:39;98687.53;;;0.14;100.00
55217;BME280;41086;46.736;15.666;2023-04-03T04:25:07;98692.78;;;0.11;100.00
55217;BME280;41086;46.736;15.666;2023-04-03T04:27:36;98694.69;;;0.04;100.00
55217;BME280;41086;46.736;15.666;2023-04-03T04:30:05;98688.75;;;-0.03;100.00
55217;BME280;41086;46.736;15.666;2023-04-03T04:32:33;98684.66;;;-0.13;100.00
55217;BME280;41086;46.736;15.666;2023-04-03T04:35:00;98689.94;;;-0.16;100.00
55217;BME280;41086;46.736;15.666;2023-04-03T04:37:29;98696.06;;;-0.18;100.00
55217;BME280;41086;46.736;15.666;2023-04-03T04:39:57;98696.25;;;-0.28;100.00
55217;BME280;41086;46.736;15.666;2023-04-03T04:42:24;98700.69;;;-0.33;100.00
55217;BME280;41086;46.736;15.666;2023-04-03T04:44:51;98686.88;;;-0.36;100.00
55217;BME280;41086;46.736;15.666;2023-04-03T04:47:18;98667.88;;;-0.41;100.00
55217;BME280;41086;46.736;15.666;2023-04-03T04:49:45;98681.59;;;-0.32;100.00
55217;BME280;41086;46.736;15.666;2023-04-03T04:52:14;98672.88;;;-0.31;100.00
55217;BME280;41086;46.736;15.666;2023-04-03T04:54:41;98688.41;;;-0.28;100.00
55217;BME280;41086;46.736;15.666;2023-04-03T04:57:09;98690.22;;;-0.30;100.00
55217;BME280;41086;46.736;15.666;2023-04-03T04:59:37;98688.47;;;-0.29;100.00
55217;BME280;41086;46.736;15.666;2023-04-03T05:02:06;98691.03;;;-0.28;100.00
55217;BME280;41086;46.736;15.666;2023-04-03T05:04:35;98687.78;;;-0.37;100.00
55217;BME280;41086;46.736;15.666;2023-04-03T05:07:08;98677.22;;;-0.30;100.00
55217;BME280;41086;46.736;15.666;2023-04-03T05:09:35;98691.66;;;-0.16;100.00
55217;BME280;41086;46.736;15.666;2023-04-03T05:12:03;98696.13;;;-0.21;100.00
55217;BME280;41086;46.736;15.666;2023-04-03T05:14:36;98691.94;;;-0.29;100.00
55217;BME280;41086;46.736;15.666;2023-04-03T05:17:06;98700.44;;;-0.20;100.00
55217;BME280;41086;46.736;15.666;2023-04-03T05:19:36;98695.75;;;-0.05;100.00
55217;BME280;41086;46.736;15.666;2023-04-03T05:22:05;98708.38;;;0.12;100.00
55217;BME280;41086;46.736;15.666;2023-04-03T05:24:32;98702.16;;;0.19;100.00
55217;BME280;41086;46.736;15.666;2023-04-03T05:27:00;98708.81;;;0.31;100.00
55217;BME280;41086;46.736;15.666;2023-04-03T05:29:27;98709.22;;;0.52;100.00
55217;BME280;41086;46.736;15.666;2023-04-03T05:31:55;98701.00;;;0.67;100.00
55217;BME280;41086;46.736;15.666;2023-04-03T05:34:22;98711.72;;;0.89;100.00
55217;BME280;41086;46.736;15.666;2023-04-03T05:36:51;98716.84;;;0.94;100.00
55217;BME280;41086;46.736;15.666;2023-04-03T05:39:18;98715.63;;;1.07;100.00
55217;BME280;41086;46.736;15.666;2023-04-03T05:41:46;98723.06;;;1.22;100.00
55217;BME280;41086;46.736;15.666;2023-04-03T05:44:13;98713.97;;;1.36;100.00
55217;BME280;41086;46.736;15.666;2023-04-03T05:46:42;98718.22;;;1.40;100.00
55217;BME280;41086;46.736;15.666;2023-04-03T05:49:10;98704.16;;;1.44;100.00
55217;BME280;41086;46.736;15.666;2023-04-03T05:51:38;98707.94;;;1.65;100.00
55217;BME280;41086;46.736;15.666;2023-04-03T05:54:25;98709.38;;;2.05;100.00
55217;BME280;41086;46.736;15.666;2023-04-03T05:56:57;98717.53;;;2.22;100.00
55217;BME280;41086;46.736;15.666;2023-04-03T05:59:25;98724.03;;;2.65;100.00
55217;BME280;41086;46.736;15.666;2023-04-03T06:01:55;98736.19;;;2.93;100.00
55217;BME280;41086;46.736;15.666;2023-04-03T06:04:23;98724.94;;;2.91;100.00
55217;BME280;41086;46.736;15.666;2023-04-03T06:06:53;98735.03;;;3.01;100.00
55217;BME280;41086;46.736;15.666;2023-04-03T06:09:22;98744.34;;;3.10;100.00
55217;BME280;41086;46.736;15.666;2023-04-03T06:11:49;98740.22;;;3.28;100.00
55217;BME280;41086;46.736;15.666;2023-04-03T06:14:16;98739.38;;;3.27;100.00
55217;BME280;41086;46.736;15.666;2023-04-03T06:16:43;98746.81;;;3.40;100.00
55217;BME280;41086;46.736;15.666;2023-04-03T06:19:11;98744.00;;;3.44;100.00
55217;BME280;41086;46.736;15.666;2023-04-03T06:21:44;98750.72;;;3.76;100.00
55217;BME280;41086;46.736;15.666;2023-04-03T06:24:14;98745.00;;;4.12;100.00
55217;BME280;41086;46.736;15.666;2023-04-03T06:26:42;98751.94;;;4.59;100.00
55217;BME280;41086;46.736;15.666;2023-04-03T06:29:08;98753.69;;;5.02;100.00
55217;BME280;41086;46.736;15.666;2023-04-03T06:31:35;98758.19;;;5.40;100.00
55217;BME280;41086;46.736;15.666;2023-04-03T06:34:06;98747.50;;;5.65;100.00
55217;BME280;41086;46.736;15.666;2023-04-03T06:36:35;98756.88;;;5.70;98.56
55217;BME280;41086;46.736;15.666;2023-04-03T06:39:02;98764.88;;;5.88;95.24
55217;BME280;41086;46.736;15.666;2023-04-03T06:41:29;98752.19;;;6.16;93.75
55217;BME280;41086;46.736;15.666;2023-04-03T06:43:57;98752.41;;;6.31;88.56
55217;BME280;41086;46.736;15.666;2023-04-03T06:46:26;98761.06;;;6.52;92.55
55217;BME280;41086;46.736;15.666;2023-04-03T06:48:53;98756.84;;;6.66;88.40
55217;BME280;41086;46.736;15.666;2023-04-03T06:51:24;98762.00;;;6.87;92.81
55217;BME280;41086;46.736;15.666;2023-04-03T06:53:52;98754.09;;;7.04;87.58
55217;BME280;41086;46.736;15.666;2023-04-03T06:56:20;98767.19;;;6.88;84.81
55217;BME280;41086;46.736;15.666;2023-04-03T06:58:47;98750.47;;;6.90;81.54
55217;BME280;41086;46.736;15.666;2023-04-03T07:01:16;98759.06;;;6.93;78.84
55217;BME280;41086;46.736;15.666;2023-04-03T07:03:44;98771.81;;;7.20;85.10
55217;BME280;41086;46.736;15.666;2023-04-03T07:06:13;98768.84;;;7.26;76.87
55217;BME280;41086;46.736;15.666;2023-04-03T07:08:40;98773.19;;;7.27;83.15
55217;BME280;41086;46.736;15.666;2023-04-03T07:11:07;98770.44;;;7.11;78.25
55217;BME280;41086;46.736;15.666;2023-04-03T07:13:34;98773.66;;;7.18;78.91
55217;BME280;41086;46.736;15.666;2023-04-03T07:16:01;98772.34;;;7.09;73.88
55217;BME280;41086;46.736;15.666;2023-04-03T07:18:30;98785.03;;;7.18;75.45
55217;BME280;41086;46.736;15.666;2023-04-03T07:20:57;98784.44;;;7.48;73.85
55217;BME280;41086;46.736;15.666;2023-04-03T07:23:24;98789.84;;;7.62;80.61
55217;BME280;41086;46.736;15.666;2023-04-03T07:25:51;98796.06;;;7.44;73.00
55217;BME280;41086;46.736;15.666;2023-04-03T07:28:19;98800.66;;;7.58;87.19
55217;BME280;41086;46.736;15.666;2023-04-03T07:30:48;98795.56;;;7.88;82.68
55217;BME280;41086;46.736;15.666;2023-04-03T07:33:17;98805.66;;;8.13;80.43
55217;BME280;41086;46.736;15.666;2023-04-03T07:35:44;98805.53;;;8.32;76.48
55217;BME280;41086;46.736;15.666;2023-04-03T07:38:12;98796.28;;;8.40;72.11
55217;BME280;41086;46.736;15.666;2023-04-03T07:40:39;98789.97;;;8.75;70.54
55217;BME280;41086;46.736;15.666;2023-04-03T07:43:07;98796.88;;;8.93;69.85
55217;BME280;41086;46.736;15.666;2023-04-03T07:45:34;98811.38;;;8.86;65.04
55217;BME280;41086;46.736;15.666;2023-04-03T07:48:03;98795.34;;;8.41;63.72
55217;BME280;41086;46.736;15.666;2023-04-03T07:50:30;98808.78;;;8.37;69.47
55217;BME280;41086;46.736;15.666;2023-04-03T07:52:58;98808.69;;;8.23;70.96
55217;BME280;41086;46.736;15.666;2023-04-03T07:55:26;98814.97;;;8.20;75.13
55217;BME280;41086;46.736;15.666;2023-04-03T07:57:52;98815.09;;;8.17;70.27
55217;BME280;41086;46.736;15.666;2023-04-03T08:00:19;98818.19;;;8.09;74.51
55217;BME280;41086;46.736;15.666;2023-04-03T08:02:46;98819.59;;;7.99;73.44
55217;BME280;41086;46.736;15.666;2023-04-03T08:05:19;98816.59;;;7.72;69.88
55217;BME280;41086;46.736;15.666;2023-04-03T08:07:46;98819.00;;;7.59;71.86
55217;BME280;41086;46.736;15.666;2023-04-03T08:10:14;98817.38;;;7.57;74.67
55217;BME280;41086;46.736;15.666;2023-04-03T08:12:41;98818.09;;;7.43;80.34
55217;BME280;41086;46.736;15.666;2023-04-03T08:15:09;98819.94;;;7.58;72.24
55217;BME280;41086;46.736;15.666;2023-04-03T08:17:36;98815.75;;;7.54;76.43
55217;BME280;41086;46.736;15.666;2023-04-03T08:20:05;98822.91;;;7.69;78.27
55217;BME280;41086;46.736;15.666;2023-04-03T08:22:34;98818.28;;;7.90;72.03
55217;BME280;41086;46.736;15.666;2023-04-03T08:25:01;98821.84;;;8.07;81.43
55217;BME280;41086;46.736;15.666;2023-04-03T08:27:28;98800.63;;;8.08;70.27
55217;BME280;41086;46.736;15.666;2023-04-03T08:29:56;98808.84;;;8.35;66.68
55217;BME280;41086;46.736;15.666;2023-04-03T08:32:23;98818.38;;;8.38;69.49
55217;BME280;41086;46.736;15.666;2023-04-03T08:34:51;98812.66;;;8.30;67.16
55217;BME280;41086;46.736;15.666;2023-04-03T08:37:18;98815.59;;;8.25;66.79
55217;BME280;41086;46.736;15.666;2023-04-03T08:39:46;98824.59;;;8.21;66.87
55217;BME280;41086;46.736;15.666;2023-04-03T08:47:45;98820.88;;;8.08;69.60
55217;BME280;41086;46.736;15.666;2023-04-03T08:50:19;98821.34;;;8.16;68.71
55217;BME280;41086;46.736;15.666;2023-04-03T08:52:49;98816.25;;;8.29;70.18
55217;BME280;41086;46.736;15.666;2023-04-03T08:55:28;98824.41;;;8.24;67.81
55217;BME280;41086;46.736;15.666;2023-04-03T08:58:09;98821.88;;;8.23;63.41
55217;BME280;41086;46.736;15.666;2023-04-03T09:00:59;98822.34;;;8.13;69.08
55217;BME280;41086;46.736;15.666;2023-04-03T09:03:30;98821.50;;;8.13;67.26
55217;BME280;41086;46.736;15.666;2023-04-03T09:06:03;98822.19;;;8.16;71.09
55217;BME280;41086;46.736;15.666;2023-04-03T09:08:37;98813.41;;;8.49;64.21
55217;BME280;41086;46.736;15.666;2023-04-03T09:19:17;98812.72;;;7.79;65.46
55217;BME280;41086;46.736;15.666;2023-04-03T09:21:47;98820.56;;;7.63;66.81
55217;BME280;41086;46.736;15.666;2023-04-03T09:24:16;98820.19;;;7.53;68.28
55217;BME280;41086;46.736;15.666;2023-04-03T09:26:59;98823.34;;;7.43;65.35
55217;BME280;41086;46.736;15.666;2023-04-03T09:29:29;98810.09;;;7.44;69.42
55217;BME280;41086;46.736;15.666;2023-04-03T09:32:00;98813.41;;;7.13;66.45
55217;BME280;41086;46.736;15.666;2023-04-03T09:34:35;98810.28;;;6.87;60.94
55217;BME280;41086;46.736;15.666;2023-04-03T09:37:04;98817.19;;;6.90;64.42
55217;BME280;41086;46.736;15.666;2023-04-03T09:39:48;98808.66;;;7.02;64.03
55217;BME280;41086;46.736;15.666;2023-04-03T09:42:24;98807.44;;;7.27;63.52
55217;BME280;41086;46.736;15.666;2023-04-03T09:44:59;98819.88;;;7.25;65.23
55217;BME280;41086;46.736;15.666;2023-04-03T09:47:32;98795.31;;;6.88;63.44
55217;BME280;41086;46.736;15.666;2023-04-03T09:52:44;98791.09;;;6.84;63.61
55217;BME280;41086;46.736;15.666;2023-04-03T09:55:20;98805.81;;;6.71;65.41
55217;BME280;41086;46.736;15.666;2023-04-03T09:58:02;98816.75;;;6.80;64.73
55217;BME280;41086;46.736;15.666;2023-04-03T10:00:37;98814.47;;;6.73;61.42
55217;BME280;41086;46.736;15.666;2023-04-03T10:03:24;98815.41;;;6.72;62.69
55217;BME280;41086;46.736;15.666;2023-04-03T10:05:51;98815.28;;;6.75;61.88
55217;BME280;41086;46.736;15.666;2023-04-03T10:08:30;98808.81;;;6.99;66.16
55217;BME280;41086;46.736;15.666;2023-04-03T10:11:15;98811.81;;;7.28;63.07
55217;BME280;41086;46.736;15.666;2023-04-03T10:14:00;98816.84;;;7.50;63.18
55217;BME280;41086;46.736;15.666;2023-04-03T10:16:41;98808.00;;;7.68;60.72
55217;BME280;41086;46.736;15.666;2023-04-03T10:22:21;98799.94;;;7.71;56.26
55217;BME280;41086;46.736;15.666;2023-04-03T10:25:00;98808.06;;;7.67;52.58
55217;BME280;41086;46.736;15.666;2023-04-03T10:33:34;98812.25;;;7.53;53.62
55217;BME280;41086;46.736;15.666;2023-04-03T10:36:44;98808.00;;;7.51;56.58
55217;BME280;41086;46.736;15.666;2023-04-03T10:39:40;98799.19;;;7.52;56.45
55217;BME280;41086;46.736;15.666;2023-04-03T10:48:10;98815.97;;;7.32;61.14
55217;BME280;41086;46.736;15.666;2023-04-03T10:50:56;98823.19;;;7.46;62.34
55217;BME280;41086;46.736;15.666;2023-04-03T10:53:34;98821.97;;;7.53;63.93
55217;BME280;41086;46.736;15.666;2023-04-03T10:56:22;98822.03;;;7.51;62.42
55217;BME280;41086;46.736;15.666;2023-04-03T10:59:02;98814.75;;;7.57;64.64
55217;BME280;41086;46.736;15.666;2023-04-03T11:01:36;98808.06;;;7.67;63.23
55217;BME280;41086;46.736;15.666;2023-04-03T11:04:05;98810.31;;;7.74;64.55
55217;BME280;41086;46.736;15.666;2023-04-03T11:06:44;98798.91;;;7.74;62.25
55217;BME280;41086;46.736;15.666;2023-04-03T11:09:25;98799.72;;;7.92;59.24
55217;BME280;41086;46.736;15.666;2023-04-03T11:12:02;98795.03;;;8.14;56.36
55217;BME280;41086;46.736;15.666;2023-04-03T11:14:31;98806.19;;;8.35;55.10
55217;BME280;41086;46.736;15.666;2023-04-03T11:19:52;98796.13;;;8.75;58.21
55217;BME280;41086;46.736;15.666;2023-04-03T11:22:27;98793.91;;;8.68;54.30
55217;BME280;41086;46.736;15.666;2023-04-03T11:27:38;98782.06;;;8.75;53.41
55217;BME280;41086;46.736;15.666;2023-04-03T11:30:13;98782.72;;;8.62;51.67
55217;BME280;41086;46.736;15.666;2023-04-03T11:35:46;98789.81;;;8.46;53.47
55217;BME280;41086;46.736;15.666;2023-04-03T11:38:41;98778.78;;;8.38;53.72
55217;BME280;41086;46.736;15.666;2023-04-03T11:41:11;98778.03;;;8.52;52.95
55217;BME280;41086;46.736;15.666;2023-04-03T11:43:43;98772.41;;;8.74;52.09
55217;BME280;41086;46.736;15.666;2023-04-03T11:46:21;98782.91;;;8.75;53.15
55217;BME280;41086;46.736;15.666;2023-04-03T11:48:50;98771.56;;;8.57;53.65
55217;BME280;41086;46.736;15.666;2023-04-03T11:54:34;98770.94;;;8.20;51.88
55217;BME280;41086;46.736;15.666;2023-04-03T11:57:43;98774.75;;;8.15;54.42
55217;BME280;41086;46.736;15.666;2023-04-03T12:00:46;98770.63;;;7.93;55.14
55217;BME280;41086;46.736;15.666;2023-04-03T12:16:55;98748.47;;;8.77;52.38
55217;BME280;41086;46.736;15.666;2023-04-03T12:29:21;98757.28;;;8.12;52.64
55217;BME280;41086;46.736;15.666;2023-04-03T12:32:21;98758.56;;;8.21;52.67
55217;BME280;41086;46.736;15.666;2023-04-03T12:45:47;98741.25;;;9.25;50.43
55217;BME280;41086;46.736;15.666;2023-04-03T12:48:20;98736.75;;;9.41;52.65
55217;BME280;41086;46.736;15.666;2023-04-03T12:50:49;98741.06;;;9.58;48.82
55217;BME280;41086;46.736;15.666;2023-04-03T12:53:18;98736.38;;;9.33;49.56
55217;BME280;41086;46.736;15.666;2023-04-03T12:55:46;98730.41;;;9.15;47.75
55217;BME280;41086;46.736;15.666;2023-04-03T12:58:21;98723.53;;;8.97;49.49
55217;BME280;41086;46.736;15.666;2023-04-03T13:01:10;98733.69;;;8.88;47.16
55217;BME280;41086;46.736;15.666;2023-04-03T13:03:39;98727.19;;;8.94;50.11
55217;BME280;41086;46.736;15.666;2023-04-03T13:06:20;98724.63;;;8.93;49.25
55217;BME280;41086;46.736;15.666;2023-04-03T13:08:53;98728.75;;;9.71;49.13
55217;BME280;41086;46.736;15.666;2023-04-03T13:11:21;98719.59;;;9.77;47.68
55217;BME280;41086;46.736;15.666;2023-04-03T13:14:04;98711.66;;;9.63;46.53
55217;BME280;41086;46.736;15.666;2023-04-03T13:16:32;98704.75;;;9.31;45.96
55217;BME280;41086;46.736;15.666;2023-04-03T13:19:00;98700.03;;;9.94;46.99
55217;BME280;41086;46.736;15.666;2023-04-03T13:21:31;98714.75;;;10.27;44.49
55217;BME280;41086;46.736;15.666;2023-04-03T13:24:01;98715.03;;;10.22;43.69
55217;BME280;41086;46.736;15.666;2023-04-03T13:26:41;98706.19;;;9.94;43.56
55217;BME280;41086;46.736;15.666;2023-04-03T13:29:21;98713.19;;;9.67;43.90
55217;BME280;41086;46.736;15.666;2023-04-03T13:31:57;98707.41;;;9.46;46.66
55217;BME280;41086;46.736;15.666;2023-04-03T13:34:27;98699.28;;;9.04;46.49
55217;BME280;41086;46.736;15.666;2023-04-03T13:36:59;98706.31;;;8.90;46.97
55217;BME280;41086;46.736;15.666;2023-04-03T13:39:29;98690.75;;;8.85;47.81
55217;BME280;41086;46.736;15.666;2023-04-03T13:41:59;98702.88;;;9.03;49.09
55217;BME280;41086;46.736;15.666;2023-04-03T13:44:34;98708.28;;;9.75;46.78
55217;BME280;41086;46.736;15.666;2023-04-03T13:49:46;98693.56;;;10.68;45.52
55217;BME280;41086;46.736;15.666;2023-04-03T13:52:30;98683.91;;;11.20;45.25
55217;BME280;41086;46.736;15.666;2023-04-03T13:55:24;98687.47;;;11.46;44.07
55217;BME280;41086;46.736;15.666;2023-04-03T13:58:22;98684.59;;;11.87;44.05
55217;BME280;41086;46.736;15.666;2023-04-03T14:00:55;98679.03;;;11.77;42.20
55217;BME280;41086;46.736;15.666;2023-04-03T14:03:32;98679.63;;;11.04;40.48
55217;BME280;41086;46.736;15.666;2023-04-03T14:06:00;98686.78;;;10.77;41.06
55217;BME280;41086;46.736;15.666;2023-04-03T14:08:27;98673.06;;;11.10;40.60
55217;BME280;41086;46.736;15.666;2023-04-03T14:11:20;98675.78;;;11.48;42.12
55217;BME280;41086;46.736;15.666;2023-04-03T14:13:48;98671.09;;;11.90;40.99
55217;BME280;41086;46.736;15.666;2023-04-03T14:16:20;98672.03;;;11.76;42.68
55217;BME280;41086;46.736;15.666;2023-04-03T14:18:48;98684.28;;;11.53;42.61
55217;BME280;41086;46.736;15.666;2023-04-03T14:21:17;98676.53;;;11.38;42.45
55217;BME280;41086;46.736;15.666;2023-04-03T14:23:44;98680.22;;;11.35;41.60
55217;BME280;41086;46.736;15.666;2023-04-03T14:26:18;98656.44;;;11.21;40.39
55217;BME280;41086;46.736;15.666;2023-04-03T14:28:49;98655.69;;;11.44;39.79
55217;BME280;41086;46.736;15.666;2023-04-03T14:31:18;98660.88;;;11.59;42.40
55217;BME280;41086;46.736;15.666;2023-04-03T14:33:45;98665.44;;;11.05;41.45
55217;BME280;41086;46.736;15.666;2023-04-03T14:36:21;98661.28;;;10.89;40.78
55217;BME280;41086;46.736;15.666;2023-04-03T14:38:49;98654.56;;;10.70;41.70
55217;BME280;41086;46.736;15.666;2023-04-03T14:41:19;98655.16;;;10.34;40.99